sensor_id;sensor_type;location;lat;lon;timestamp;pressure;altitude;pressure_sealevel;temperature;humidity
75247;BME280;63844;50.042;19.224;2022-12-07T00:03:49;98599.76;;;1.44;90.53
75247;BME280;63844;50.042;19.224;2022-12-07T00:06:17;98598.55;;;1.44;90.73
75247;BME280;63844;50.042;19.224;2022-12-07T00:08:45;98596.05;;;1.46;90.60
75247;BME280;63844;50.042;19.224;2022-12-07T00:11:17;98593.54;;;1.48;90.46
75247;BME280;63844;50.042;19.224;2022-12-07T00:13:44;98590.71;;;1.49;90.50
75247;BME280;63844;50.042;19.224;2022-12-07T00:16:16;98590.55;;;1.49;90.16
75247;BME280;63844;50.042;19.224;2022-12-07T00:18:44;98593.52;;;1.48;90.17
75247;BME280;63844;50.042;19.224;2022-12-07T00:21:19;98589.05;;;1.47;90.28
75247;BME280;63844;50.042;19.224;2022-12-07T00:23:47;98584.17;;;1.47;90.35
75247;BME280;63844;50.042;19.224;2022-12-07T00:26:20;98584.41;;;1.45;90.50
75247;BME280;63844;50.042;19.224;2022-12-07T00:28:48;98583.73;;;1.44;90.54
75247;BME280;63844;50.042;19.224;2022-12-07T00:31:16;98583.84;;;1.41;90.72
75247;BME280;63844;50.042;19.224;2022-12-07T00:33:43;98584.80;;;1.44;90.34
75247;BME280;63844;50.042;19.224;2022-12-07T00:36:13;98583.19;;;1.44;90.32
75247;BME280;63844;50.042;19.224;2022-12-07T00:38:40;98581.34;;;1.48;90.59
75247;BME280;63844;50.042;19.224;2022-12-07T00:41:11;98578.02;;;1.48;90.40
75247;BME280;63844;50.042;19.224;2022-12-07T00:43:39;98572.67;;;1.47;90.61
75247;BME280;63844;50.042;19.224;2022-12-07T00:46:06;98568.71;;;1.49;90.51
75247;BME280;63844;50.042;19.224;2022-12-07T00:48:32;98566.34;;;1.52;90.49
75247;BME280;63844;50.042;19.224;2022-12-07T00:50:59;98567.72;;;1.53;90.50
75247;BME280;63844;50.042;19.224;2022-12-07T00:53:27;98565.81;;;1.52;90.49
75247;BME280;63844;50.042;19.224;2022-12-07T00:55:53;98567.11;;;1.50;90.66
75247;BME280;63844;50.042;19.224;2022-12-07T00:58:22;98568.52;;;1.50;90.58
75247;BME280;63844;50.042;19.224;2022-12-07T01:00:49;98568.37;;;1.49;90.80
75247;BME280;63844;50.042;19.224;2022-12-07T01:03:16;98567.57;;;1.52;90.87
75247;BME280;63844;50.042;19.224;2022-12-07T01:05:51;98566.67;;;1.53;91.03
75247;BME280;63844;50.042;19.224;2022-12-07T01:08:18;98565.08;;;1.53;90.87
75247;BME280;63844;50.042;19.224;2022-12-07T01:10:46;98561.38;;;1.54;90.92
75247;BME280;63844;50.042;19.224;2022-12-07T01:13:12;98561.22;;;1.54;90.98
75247;BME280;63844;50.042;19.224;2022-12-07T01:15:40;98549.88;;;1.54;91.00
75247;BME280;63844;50.042;19.224;2022-12-07T01:18:07;98553.03;;;1.59;90.93
75247;BME280;63844;50.042;19.224;2022-12-07T01:20:33;98550.29;;;1.62;91.17
75247;BME280;63844;50.042;19.224;2022-12-07T01:23:00;98548.32;;;1.64;91.08
75247;BME280;63844;50.042;19.224;2022-12-07T01:25:26;98548.50;;;1.68;90.66
75247;BME280;63844;50.042;19.224;2022-12-07T01:27:53;98541.43;;;1.71;90.80
75247;BME280;63844;50.042;19.224;2022-12-07T01:30:19;98541.15;;;1.74;90.65
75247;BME280;63844;50.042;19.224;2022-12-07T01:32:46;98538.41;;;1.77;90.60
75247;BME280;63844;50.042;19.224;2022-12-07T01:35:12;98539.31;;;1.75;90.68
75247;BME280;63844;50.042;19.224;2022-12-07T01:37:39;98537.41;;;1.75;90.70
75247;BME280;63844;50.042;19.224;2022-12-07T01:40:06;98534.27;;;1.75;90.80
75247;BME280;63844;50.042;19.224;2022-12-07T01:42:34;98534.99;;;1.74;90.89
75247;BME280;63844;50.042;19.224;2022-12-07T01:47:53;98535.96;;;1.81;90.91
75247;BME280;63844;50.042;19.224;2022-12-07T01:50:24;98535.70;;;1.84;90.75
75247;BME280;63844;50.042;19.224;2022-12-07T01:52:54;98534.15;;;1.83;90.77
75247;BME280;63844;50.042;19.224;2022-12-07T01:55:23;98535.20;;;1.88;90.70
75247;BME280;63844;50.042;19.224;2022-12-07T01:57:52;98533.06;;;1.89;90.81
75247;BME280;63844;50.042;19.224;2022-12-07T02:00:20;98534.31;;;1.93;90.47
75247;BME280;63844;50.042;19.224;2022-12-07T02:02:54;98530.55;;;1.95;90.44
75247;BME280;63844;50.042;19.224;2022-12-07T02:05:23;98531.62;;;1.95;90.32
75247;BME280;63844;50.042;19.224;2022-12-07T02:07:51;98531.61;;;1.95;90.59
75247;BME280;63844;50.042;19.224;2022-12-07T02:10:25;98530.79;;;1.98;90.64
75247;BME280;63844;50.042;19.224;2022-12-07T02:12:56;98526.73;;;1.99;90.61
75247;BME280;63844;50.042;19.224;2022-12-07T02:15:32;98526.77;;;2.03;90.50
75247;BME280;63844;50.042;19.224;2022-12-07T02:18:11;98526.66;;;2.06;90.39
75247;BME280;63844;50.042;19.224;2022-12-07T02:31:30;98526.08;;;2.12;90.37
75247;BME280;63844;50.042;19.224;2022-12-07T02:34:08;98524.68;;;2.16;90.14
75247;BME280;63844;50.042;19.224;2022-12-07T02:36:40;98526.10;;;2.15;90.19
75247;BME280;63844;50.042;19.224;2022-12-07T02:39:15;98524.70;;;2.15;90.18
75247;BME280;63844;50.042;19.224;2022-12-07T02:41:47;98521.89;;;2.16;90.38
75247;BME280;63844;50.042;19.224;2022-12-07T02:44:23;98524.64;;;2.17;90.23
75247;BME280;63844;50.042;19.224;2022-12-07T02:46:54;98521.32;;;2.17;90.28
75247;BME280;63844;50.042;19.224;2022-12-07T02:49:24;98519.98;;;2.16;90.30
75247;BME280;63844;50.042;19.224;2022-12-07T02:51:52;98514.64;;;2.18;90.35
75247;BME280;63844;50.042;19.224;2022-12-07T02:54:20;98512.66;;;2.24;90.22
75247;BME280;63844;50.042;19.224;2022-12-07T03:05:51;98517.27;;;2.27;90.24
75247;BME280;63844;50.042;19.224;2022-12-07T03:08:58;98517.27;;;2.31;90.31
75247;BME280;63844;50.042;19.224;2022-12-07T03:11:50;98511.14;;;2.32;90.27
75247;BME280;63844;50.042;19.224;2022-12-07T03:16:55;98508.75;;;2.30;90.11
75247;BME280;63844;50.042;19.224;2022-12-07T03:19:24;98505.77;;;2.31;90.13
75247;BME280;63844;50.042;19.224;2022-12-07T03:21:56;98505.47;;;2.29;90.19
75247;BME280;63844;50.042;19.224;2022-12-07T03:24:27;98504.27;;;2.29;90.24
75247;BME280;63844;50.042;19.224;2022-12-07T03:27:04;98500.46;;;2.28;90.57
75247;BME280;63844;50.042;19.224;2022-12-07T03:29:40;98500.39;;;2.30;90.29
75247;BME280;63844;50.042;19.224;2022-12-07T03:32:14;98496.69;;;2.31;90.23
75247;BME280;63844;50.042;19.224;2022-12-07T03:35:03;98494.70;;;2.32;90.18
75247;BME280;63844;50.042;19.224;2022-12-07T03:37:40;98497.54;;;2.31;89.99
75247;BME280;63844;50.042;19.224;2022-12-07T03:42:57;98493.27;;;2.33;90.08
75247;BME280;63844;50.042;19.224;2022-12-07T03:45:32;98496.67;;;2.31;90.09
75247;BME280;63844;50.042;19.224;2022-12-07T03:48:08;98496.20;;;2.30;90.07
75247;BME280;63844;50.042;19.224;2022-12-07T03:51:19;98501.13;;;2.29;89.96
75247;BME280;63844;50.042;19.224;2022-12-07T03:53:51;98498.57;;;2.27;90.02
75247;BME280;63844;50.042;19.224;2022-12-07T03:56:20;98500.89;;;2.26;90.15
75247;BME280;63844;50.042;19.224;2022-12-07T03:58:48;98498.75;;;2.31;89.74
75247;BME280;63844;50.042;19.224;2022-12-07T04:01:15;98497.63;;;2.20;90.16
75247;BME280;63844;50.042;19.224;2022-12-07T04:03:41;98495.45;;;2.18;90.17
75247;BME280;63844;50.042;19.224;2022-12-07T04:06:08;98494.78;;;2.17;90.18
75247;BME280;63844;50.042;19.224;2022-12-07T04:08:34;98493.95;;;2.16;90.01
75247;BME280;63844;50.042;19.224;2022-12-07T04:11:01;98496.23;;;2.16;90.10
75247;BME280;63844;50.042;19.224;2022-12-07T04:13:27;98490.25;;;2.12;90.01
75247;BME280;63844;50.042;19.224;2022-12-07T04:15:54;98493.39;;;2.13;90.20
75247;BME280;63844;50.042;19.224;2022-12-07T04:18:20;98493.15;;;2.10;90.39
75247;BME280;63844;50.042;19.224;2022-12-07T04:20:47;98492.92;;;2.11;90.50
75247;BME280;63844;50.042;19.224;2022-12-07T04:23:13;98496.73;;;2.12;90.55
75247;BME280;63844;50.042;19.224;2022-12-07T04:25:40;98500.01;;;2.13;90.53
75247;BME280;63844;50.042;19.224;2022-12-07T04:28:06;98499.06;;;2.11;90.70
75247;BME280;63844;50.042;19.224;2022-12-07T04:30:33;98500.95;;;2.08;90.80
75247;BME280;63844;50.042;19.224;2022-12-07T04:32:59;98506.07;;;2.01;91.01
75247;BME280;63844;50.042;19.224;2022-12-07T04:35:25;98507.20;;;1.99;90.70
75247;BME280;63844;50.042;19.224;2022-12-07T04:37:52;98511.33;;;1.96;90.66
75247;BME280;63844;50.042;19.224;2022-12-07T04:40:18;98510.09;;;1.92;90.62
75247;BME280;63844;50.042;19.224;2022-12-07T04:42:45;98510.44;;;1.88;90.37
75247;BME280;63844;50.042;19.224;2022-12-07T04:45:11;98513.67;;;1.80;90.15
75247;BME280;63844;50.042;19.224;2022-12-07T04:47:38;98519.82;;;1.70;89.77
75247;BME280;63844;50.042;19.224;2022-12-07T04:50:05;98516.65;;;1.62;89.92
75247;BME280;63844;50.042;19.224;2022-12-07T04:52:32;98515.19;;;1.59;90.21
75247;BME280;63844;50.042;19.224;2022-12-07T04:54:58;98519.27;;;1.57;90.24
75247;BME280;63844;50.042;19.224;2022-12-07T04:57:25;98523.13;;;1.52;90.19
75247;BME280;63844;50.042;19.224;2022-12-07T04:59:51;98519.67;;;1.46;90.56
75247;BME280;63844;50.042;19.224;2022-12-07T05:02:17;98524.55;;;1.42;90.42
75247;BME280;63844;50.042;19.224;2022-12-07T05:04:44;98523.86;;;1.41;90.60
75247;BME280;63844;50.042;19.224;2022-12-07T05:07:10;98522.58;;;1.42;90.59
75247;BME280;63844;50.042;19.224;2022-12-07T05:09:37;98524.97;;;1.39;90.47
75247;BME280;63844;50.042;19.224;2022-12-07T05:12:03;98526.14;;;1.36;90.63
75247;BME280;63844;50.042;19.224;2022-12-07T05:14:29;98525.70;;;1.33;90.71
75247;BME280;63844;50.042;19.224;2022-12-07T05:16:56;98526.68;;;1.31;90.92
75247;BME280;63844;50.042;19.224;2022-12-07T05:19:22;98525.41;;;1.32;91.03
75247;BME280;63844;50.042;19.224;2022-12-07T05:21:48;98522.45;;;1.32;90.95
75247;BME280;63844;50.042;19.224;2022-12-07T05:24:16;98522.26;;;1.32;91.01
75247;BME280;63844;50.042;19.224;2022-12-07T05:26:44;98520.52;;;1.32;90.90
75247;BME280;63844;50.042;19.224;2022-12-07T05:29:13;98525.66;;;1.30;90.97
75247;BME280;63844;50.042;19.224;2022-12-07T05:31:40;98527.16;;;1.32;90.65
75247;BME280;63844;50.042;19.224;2022-12-07T05:34:07;98528.41;;;1.31;90.72
75247;BME280;63844;50.042;19.224;2022-12-07T05:36:34;98529.41;;;1.27;90.67
75247;BME280;63844;50.042;19.224;2022-12-07T05:39:00;98530.18;;;1.25;90.90
75247;BME280;63844;50.042;19.224;2022-12-07T05:41:27;98530.85;;;1.26;90.71
75247;BME280;63844;50.042;19.224;2022-12-07T05:44:12;98527.50;;;1.27;90.77
75247;BME280;63844;50.042;19.224;2022-12-07T05:46:38;98531.59;;;1.25;90.87
75247;BME280;63844;50.042;19.224;2022-12-07T05:49:05;98529.11;;;1.26;90.83
75247;BME280;63844;50.042;19.224;2022-12-07T05:51:31;98530.80;;;1.27;90.75
75247;BME280;63844;50.042;19.224;2022-12-07T05:53:57;98530.70;;;1.25;90.78
75247;BME280;63844;50.042;19.224;2022-12-07T05:56:24;98531.95;;;1.20;90.85
75247;BME280;63844;50.042;19.224;2022-12-07T05:58:50;98531.64;;;1.24;90.73
75247;BME280;63844;50.042;19.224;2022-12-07T06:01:36;98530.27;;;1.23;90.59
75247;BME280;63844;50.042;19.224;2022-12-07T06:04:02;98531.48;;;1.19;90.78
75247;BME280;63844;50.042;19.224;2022-12-07T06:06:28;98529.23;;;1.18;90.85
75247;BME280;63844;50.042;19.224;2022-12-07T06:08:55;98528.35;;;1.13;90.80
75247;BME280;63844;50.042;19.224;2022-12-07T06:11:21;98532.65;;;1.10;90.91
75247;BME280;63844;50.042;19.224;2022-12-07T06:14:07;98530.70;;;1.11;90.99
75247;BME280;63844;50.042;19.224;2022-12-07T06:16:33;98530.77;;;1.14;90.80
75247;BME280;63844;50.042;19.224;2022-12-07T06:18:59;98529.39;;;1.13;91.10
75247;BME280;63844;50.042;19.224;2022-12-07T06:21:26;98529.93;;;1.13;90.98
75247;BME280;63844;50.042;19.224;2022-12-07T06:23:53;98534.16;;;1.17;90.95
75247;BME280;63844;50.042;19.224;2022-12-07T06:26:19;98538.50;;;1.12;90.75
75247;BME280;63844;50.042;19.224;2022-12-07T06:28:46;98542.44;;;1.09;90.83
75247;BME280;63844;50.042;19.224;2022-12-07T06:31:13;98542.83;;;1.08;90.96
75247;BME280;63844;50.042;19.224;2022-12-07T06:33:39;98541.73;;;1.15;90.51
75247;BME280;63844;50.042;19.224;2022-12-07T06:36:06;98540.29;;;1.11;90.72
75247;BME280;63844;50.042;19.224;2022-12-07T06:38:33;98541.59;;;1.08;90.75
75247;BME280;63844;50.042;19.224;2022-12-07T06:40:59;98547.71;;;1.03;91.04
75247;BME280;63844;50.042;19.224;2022-12-07T06:43:25;98548.50;;;1.05;91.24
75247;BME280;63844;50.042;19.224;2022-12-07T06:45:52;98549.31;;;1.02;91.24
75247;BME280;63844;50.042;19.224;2022-12-07T06:48:18;98554.05;;;1.05;91.11
75247;BME280;63844;50.042;19.224;2022-12-07T06:50:46;98558.96;;;1.05;90.91
75247;BME280;63844;50.042;19.224;2022-12-07T06:53:13;98558.98;;;1.04;91.12
75247;BME280;63844;50.042;19.224;2022-12-07T06:55:40;98563.23;;;1.07;91.13
75247;BME280;63844;50.042;19.224;2022-12-07T06:58:06;98565.28;;;1.03;91.01
75247;BME280;63844;50.042;19.224;2022-12-07T07:00:33;98570.92;;;1.01;90.68
75247;BME280;63844;50.042;19.224;2022-12-07T07:03:01;98569.20;;;0.96;90.63
75247;BME280;63844;50.042;19.224;2022-12-07T07:05:27;98570.69;;;0.88;90.71
75247;BME280;63844;50.042;19.224;2022-12-07T07:07:54;98572.90;;;0.85;90.78
75247;BME280;63844;50.042;19.224;2022-12-07T07:10:20;98568.69;;;0.80;91.09
75247;BME280;63844;50.042;19.224;2022-12-07T07:12:46;98568.28;;;0.77;91.22
75247;BME280;63844;50.042;19.224;2022-12-07T07:15:13;98566.54;;;0.77;91.34
75247;BME280;63844;50.042;19.224;2022-12-07T07:17:39;98563.91;;;0.77;91.44
75247;BME280;63844;50.042;19.224;2022-12-07T07:20:06;98567.10;;;0.81;91.32
75247;BME280;63844;50.042;19.224;2022-12-07T07:22:32;98565.09;;;0.83;91.27
75247;BME280;63844;50.042;19.224;2022-12-07T07:24:59;98568.92;;;0.83;91.71
75247;BME280;63844;50.042;19.224;2022-12-07T07:27:25;98565.96;;;0.84;91.84
75247;BME280;63844;50.042;19.224;2022-12-07T07:29:51;98563.41;;;0.86;91.80
75247;BME280;63844;50.042;19.224;2022-12-07T07:32:18;98564.68;;;0.90;91.52
75247;BME280;63844;50.042;19.224;2022-12-07T07:34:44;98562.90;;;0.96;91.59
75247;BME280;63844;50.042;19.224;2022-12-07T07:37:10;98567.11;;;1.01;91.33
75247;BME280;63844;50.042;19.224;2022-12-07T07:39:38;98568.95;;;1.03;91.77
75247;BME280;63844;50.042;19.224;2022-12-07T07:42:05;98575.48;;;1.06;91.47
75247;BME280;63844;50.042;19.224;2022-12-07T07:44:34;98575.05;;;1.08;91.48
75247;BME280;63844;50.042;19.224;2022-12-07T07:47:00;98575.02;;;1.09;91.37
75247;BME280;63844;50.042;19.224;2022-12-07T07:49:26;98571.43;;;1.07;91.37
75247;BME280;63844;50.042;19.224;2022-12-07T07:51:53;98569.95;;;1.09;91.35
75247;BME280;63844;50.042;19.224;2022-12-07T07:54:19;98576.73;;;1.10;91.50
75247;BME280;63844;50.042;19.224;2022-12-07T07:56:45;98576.09;;;1.09;91.17
75247;BME280;63844;50.042;19.224;2022-12-07T07:59:12;98574.17;;;1.08;91.27
75247;BME280;63844;50.042;19.224;2022-12-07T08:01:38;98572.02;;;1.11;91.11
75247;BME280;63844;50.042;19.224;2022-12-07T08:04:04;98576.66;;;1.12;91.12
75247;BME280;63844;50.042;19.224;2022-12-07T08:06:31;98575.52;;;1.16;90.99
75247;BME280;63844;50.042;19.224;2022-12-07T08:08:57;98577.48;;;1.13;91.41
75247;BME280;63844;50.042;19.224;2022-12-07T08:11:24;98576.11;;;1.13;91.19
75247;BME280;63844;50.042;19.224;2022-12-07T08:13:53;98579.39;;;1.24;90.92
75247;BME280;63844;50.042;19.224;2022-12-07T08:16:19;98578.86;;;1.25;91.18
75247;BME280;63844;50.042;19.224;2022-12-07T08:18:46;98578.46;;;1.31;91.07
75247;BME280;63844;50.042;19.224;2022-12-07T08:21:14;98582.16;;;1.34;90.88
75247;BME280;63844;50.042;19.224;2022-12-07T08:23:41;98581.65;;;1.34;90.90
75247;BME280;63844;50.042;19.224;2022-12-07T08:26:12;98585.33;;;1.39;90.98
75247;BME280;63844;50.042;19.224;2022-12-07T08:28:39;98584.90;;;1.41;90.93
75247;BME280;63844;50.042;19.224;2022-12-07T08:31:11;98589.63;;;1.45;90.75
75247;BME280;63844;50.042;19.224;2022-12-07T08:33:38;98590.52;;;1.49;90.62
75247;BME280;63844;50.042;19.224;2022-12-07T08:36:10;98592.67;;;1.53;90.47
75247;BME280;63844;50.042;19.224;2022-12-07T08:38:38;98592.36;;;1.52;90.64
75247;BME280;63844;50.042;19.224;2022-12-07T08:41:06;98592.73;;;1.56;90.78
75247;BME280;63844;50.042;19.224;2022-12-07T08:43:34;98592.40;;;1.55;90.45
75247;BME280;63844;50.042;19.224;2022-12-07T08:48:53;98593.38;;;1.67;90.43
75247;BME280;63844;50.042;19.224;2022-12-07T08:51:22;98592.55;;;1.71;90.61
75247;BME280;63844;50.042;19.224;2022-12-07T08:53:51;98590.15;;;1.74;90.23
75247;BME280;63844;50.042;19.224;2022-12-07T08:56:19;98593.55;;;1.76;89.94
75247;BME280;63844;50.042;19.224;2022-12-07T08:58:46;98593.77;;;1.85;90.06
75247;BME280;63844;50.042;19.224;2022-12-07T09:01:12;98589.92;;;1.90;90.44
75247;BME280;63844;50.042;19.224;2022-12-07T09:03:39;98590.73;;;1.96;90.24
75247;BME280;63844;50.042;19.224;2022-12-07T09:06:05;98592.94;;;1.97;90.20
75247;BME280;63844;50.042;19.224;2022-12-07T09:08:35;98596.30;;;1.96;90.10
75247;BME280;63844;50.042;19.224;2022-12-07T09:11:02;98593.27;;;1.98;90.22
75247;BME280;63844;50.042;19.224;2022-12-07T09:13:29;98590.23;;;1.95;90.19
75247;BME280;63844;50.042;19.224;2022-12-07T09:15:55;98590.04;;;1.96;90.33
75247;BME280;63844;50.042;19.224;2022-12-07T09:18:22;98587.25;;;2.00;90.09
75247;BME280;63844;50.042;19.224;2022-12-07T09:20:48;98584.27;;;2.01;90.09
75247;BME280;63844;50.042;19.224;2022-12-07T09:23:14;98582.04;;;2.05;89.78
75247;BME280;63844;50.042;19.224;2022-12-07T09:25:41;98577.20;;;2.03;89.79
75247;BME280;63844;50.042;19.224;2022-12-07T09:28:07;98578.75;;;2.04;89.55
75247;BME280;63844;50.042;19.224;2022-12-07T09:30:34;98581.41;;;2.07;89.56
75247;BME280;63844;50.042;19.224;2022-12-07T09:33:01;98576.58;;;2.11;89.31
75247;BME280;63844;50.042;19.224;2022-12-07T09:35:27;98577.03;;;2.16;89.17
75247;BME280;63844;50.042;19.224;2022-12-07T09:37:54;98575.44;;;2.17;89.42
75247;BME280;63844;50.042;19.224;2022-12-07T09:40:22;98576.35;;;2.16;89.38
75247;BME280;63844;50.042;19.224;2022-12-07T09:42:52;98573.84;;;2.13;88.88
75247;BME280;63844;50.042;19.224;2022-12-07T09:45:23;98568.33;;;2.16;89.12
75247;BME280;63844;50.042;19.224;2022-12-07T09:47:51;98561.48;;;2.26;89.09
75247;BME280;63844;50.042;19.224;2022-12-07T09:50:21;98558.50;;;2.31;89.13
75247;BME280;63844;50.042;19.224;2022-12-07T09:52:50;98559.77;;;2.24;88.66
75247;BME280;63844;50.042;19.224;2022-12-07T09:55:27;98557.20;;;2.24;88.89
75247;BME280;63844;50.042;19.224;2022-12-07T09:57:55;98551.29;;;2.27;88.53
75247;BME280;63844;50.042;19.224;2022-12-07T10:00:23;98554.21;;;2.29;88.44
75247;BME280;63844;50.042;19.224;2022-12-07T10:02:55;98551.95;;;2.32;88.24
75247;BME280;63844;50.042;19.224;2022-12-07T10:05:27;98546.58;;;2.32;87.90
75247;BME280;63844;50.042;19.224;2022-12-07T10:07:55;98543.52;;;2.34;88.11
75247;BME280;63844;50.042;19.224;2022-12-07T10:10:29;98539.30;;;2.35;87.98
75247;BME280;63844;50.042;19.224;2022-12-07T10:13:02;98538.13;;;2.42;87.75
75247;BME280;63844;50.042;19.224;2022-12-07T10:15:45;98534.33;;;2.41;87.71
75247;BME280;63844;50.042;19.224;2022-12-07T10:20:48;98523.71;;;2.53;87.58
75247;BME280;63844;50.042;19.224;2022-12-07T10:23:18;98523.34;;;2.49;87.14
75247;BME280;63844;50.042;19.224;2022-12-07T10:25:44;98519.88;;;2.57;87.37
75247;BME280;63844;50.042;19.224;2022-12-07T10:28:17;98518.67;;;2.61;86.74
75247;BME280;63844;50.042;19.224;2022-12-07T10:31:01;98512.88;;;2.62;86.39
75247;BME280;63844;50.042;19.224;2022-12-07T10:33:54;98510.46;;;2.65;85.97
75247;BME280;63844;50.042;19.224;2022-12-07T10:36:27;98506.33;;;2.77;86.24
75247;BME280;63844;50.042;19.224;2022-12-07T10:39:09;98502.85;;;2.80;85.48
75247;BME280;63844;50.042;19.224;2022-12-07T10:41:56;98499.48;;;2.85;85.14
75247;BME280;63844;50.042;19.224;2022-12-07T10:44:26;98494.26;;;2.93;84.98
75247;BME280;63844;50.042;19.224;2022-12-07T10:55:46;98483.89;;;3.18;83.63
75247;BME280;63844;50.042;19.224;2022-12-07T11:01:31;98478.90;;;3.44;82.42
75247;BME280;63844;50.042;19.224;2022-12-07T11:06:54;98479.98;;;3.47;80.82
75247;BME280;63844;50.042;19.224;2022-12-07T11:09:40;98474.58;;;3.46;81.26
75247;BME280;63844;50.042;19.224;2022-12-07T11:12:37;98477.19;;;3.39;80.74
75247;BME280;63844;50.042;19.224;2022-12-07T11:15:41;98474.85;;;3.36;80.19
75247;BME280;63844;50.042;19.224;2022-12-07T11:21:13;98468.14;;;3.42;80.00
75247;BME280;63844;50.042;19.224;2022-12-07T11:24:16;98470.20;;;3.46;79.71
75247;BME280;63844;50.042;19.224;2022-12-07T11:27:05;98469.11;;;3.44;79.37
75247;BME280;63844;50.042;19.224;2022-12-07T11:29:49;98467.82;;;3.41;80.19
75247;BME280;63844;50.042;19.224;2022-12-07T11:38:07;98465.32;;;3.43;79.14
75247;BME280;63844;50.042;19.224;2022-12-07T11:40:36;98463.09;;;3.42;78.68
75247;BME280;63844;50.042;19.224;2022-12-07T11:45:45;98450.45;;;3.42;78.31
75247;BME280;63844;50.042;19.224;2022-12-07T11:50:54;98451.61;;;3.40;78.34
75247;BME280;63844;50.042;19.224;2022-12-07T11:53:27;98446.44;;;3.42;78.53
75247;BME280;63844;50.042;19.224;2022-12-07T12:04:01;98442.07;;;3.46;77.41
75247;BME280;63844;50.042;19.224;2022-12-07T12:06:28;98447.10;;;3.43;77.32
75247;BME280;63844;50.042;19.224;2022-12-07T12:09:17;98450.00;;;3.41;76.66
75247;BME280;63844;50.042;19.224;2022-12-07T12:20:30;98445.90;;;3.43;76.73
75247;BME280;63844;50.042;19.224;2022-12-07T12:23:17;98454.22;;;3.44;76.19
75247;BME280;63844;50.042;19.224;2022-12-07T12:25:48;98447.67;;;3.42;75.87
75247;BME280;63844;50.042;19.224;2022-12-07T12:28:27;98447.55;;;3.44;76.47
75247;BME280;63844;50.042;19.224;2022-12-07T12:33:59;98451.45;;;3.55;76.26
75247;BME280;63844;50.042;19.224;2022-12-07T12:39:14;98463.02;;;3.58;76.25
75247;BME280;63844;50.042;19.224;2022-12-07T12:46:55;98453.75;;;3.54;76.75
75247;BME280;63844;50.042;19.224;2022-12-07T12:51:54;98453.21;;;3.66;76.51
75247;BME280;63844;50.042;19.224;2022-12-07T12:54:24;98446.29;;;3.75;76.47
75247;BME280;63844;50.042;19.224;2022-12-07T13:15:56;98422.41;;;3.88;75.13
75247;BME280;63844;50.042;19.224;2022-12-07T13:18:41;98425.08;;;3.76;74.58
75247;BME280;63844;50.042;19.224;2022-12-07T13:26:18;98429.67;;;3.60;75.28
75247;BME280;63844;50.042;19.224;2022-12-07T13:29:16;98431.73;;;3.57;74.59
75247;BME280;63844;50.042;19.224;2022-12-07T13:31:46;98437.95;;;3.55;74.54
75247;BME280;63844;50.042;19.224;2022-12-07T13:34:46;98440.10;;;3.54;74.42
75247;BME280;63844;50.042;19.224;2022-12-07T13:40:18;98446.80;;;3.46;74.30
75247;BME280;63844;50.042;19.224;2022-12-07T13:42:45;98446.70;;;3.44;74.33
75247;BME280;63844;50.042;19.224;2022-12-07T13:45:33;98453.02;;;3.47;74.23
75247;BME280;63844;50.042;19.224;2022-12-07T13:50:58;98452.09;;;3.41;74.66
75247;BME280;63844;50.042;19.224;2022-12-07T13:53:25;98452.02;;;3.38;74.84
75247;BME280;63844;50.042;19.224;2022-12-07T13:55:54;98450.31;;;3.37;74.91
75247;BME280;63844;50.042;19.224;2022-12-07T13:58:22;98450.24;;;3.31;74.66
75247;BME280;63844;50.042;19.224;2022-12-07T14:00:48;98448.29;;;3.28;75.18
75247;BME280;63844;50.042;19.224;2022-12-07T14:05:43;98447.59;;;3.24;75.09
75247;BME280;63844;50.042;19.224;2022-12-07T14:10:41;98454.43;;;3.24;75.00
75247;BME280;63844;50.042;19.224;2022-12-07T14:13:29;98451.58;;;3.21;74.78
75247;BME280;63844;50.042;19.224;2022-12-07T14:15:56;98447.08;;;3.16;75.23
75247;BME280;63844;50.042;19.224;2022-12-07T14:18:29;98448.45;;;3.13;74.85
75247;BME280;63844;50.042;19.224;2022-12-07T14:21:14;98445.14;;;3.12;74.73
75247;BME280;63844;50.042;19.224;2022-12-07T14:23:41;98450.70;;;3.09;74.81
75247;BME280;63844;50.042;19.224;2022-12-07T14:26:20;98453.60;;;3.07;75.06
75247;BME280;63844;50.042;19.224;2022-12-07T14:28:47;98456.29;;;3.06;75.03
75247;BME280;63844;50.042;19.224;2022-12-07T14:31:21;98455.73;;;3.07;75.15
75247;BME280;63844;50.042;19.224;2022-12-07T14:33:48;98459.19;;;3.08;75.72
75247;BME280;63844;50.042;19.224;2022-12-07T14:36:15;98459.25;;;3.06;75.29
75247;BME280;63844;50.042;19.224;2022-12-07T14:38:41;98460.52;;;3.05;75.40
75247;BME280;63844;50.042;19.224;2022-12-07T14:41:17;98454.98;;;3.04;75.77
75247;BME280;63844;50.042;19.224;2022-12-07T14:44:12;98456.11;;;3.05;75.50
75247;BME280;63844;50.042;19.224;2022-12-07T14:46:39;98457.43;;;3.04;75.67
75247;BME280;63844;50.042;19.224;2022-12-07T14:49:05;98464.33;;;3.02;76.01
75247;BME280;63844;50.042;19.224;2022-12-07T14:51:32;98471.38;;;3.01;76.18
75247;BME280;63844;50.042;19.224;2022-12-07T14:53:59;98473.14;;;3.01;76.12
75247;BME280;63844;50.042;19.224;2022-12-07T14:56:26;98469.98;;;3.04;76.52
75247;BME280;63844;50.042;19.224;2022-12-07T14:58:53;98475.61;;;3.04;76.63
75247;BME280;63844;50.042;19.224;2022-12-07T15:01:20;98471.47;;;3.02;76.90
75247;BME280;63844;50.042;19.224;2022-12-07T15:03:46;98477.96;;;3.02;76.33
75247;BME280;63844;50.042;19.224;2022-12-07T15:06:15;98482.48;;;3.03;76.58
75247;BME280;63844;50.042;19.224;2022-12-07T15:08:42;98486.65;;;3.03;76.03
75247;BME280;63844;50.042;19.224;2022-12-07T15:11:14;98486.58;;;3.01;75.89
75247;BME280;63844;50.042;19.224;2022-12-07T15:13:41;98485.07;;;3.03;75.98
75247;BME280;63844;50.042;19.224;2022-12-07T15:16:26;98483.90;;;3.02;76.20
75247;BME280;63844;50.042;19.224;2022-12-07T15:18:53;98485.27;;;3.03;76.41
75247;BME280;63844;50.042;19.224;2022-12-07T15:21:19;98483.32;;;3.03;76.35
75247;BME280;63844;50.042;19.224;2022-12-07T15:23:46;98483.61;;;3.01;75.99
75247;BME280;63844;50.042;19.224;2022-12-07T15:26:13;98486.58;;;3.01;76.07